createdAt,value
2018-03-31T00:00:35.991Z,101578.25
2018-03-31T00:03:04.153Z,101576.78
2018-03-31T00:05:32.362Z,101576.32
2018-03-31T00:08:00.510Z,101576.31
2018-03-31T00:10:28.741Z,101568.82
2018-03-31T00:12:57.040Z,101556.36
2018-03-31T00:15:25.312Z,101551.55
2018-03-31T00:17:53.495Z,101551.93
2018-03-31T00:20:22.718Z,101548.13
2018-03-31T00:22:51.834Z,101542.84
2018-03-31T00:25:20.054Z,101548.20
2018-03-31T00:27:48.239Z,101544.55
2018-03-31T00:30:16.423Z,101544.05
2018-03-31T00:32:44.609Z,101551.30
2018-03-31T00:35:12.578Z,101549.05
2018-03-31T00:37:40.756Z,101549.84
2018-03-31T00:40:08.897Z,101546.76
2018-03-31T00:42:37.082Z,101536.67
2018-03-31T00:45:05.484Z,101529.07
2018-03-31T00:47:33.739Z,101522.59
2018-03-31T00:50:01.902Z,101524.64
2018-03-31T00:52:30.113Z,101531.25
2018-03-31T00:54:58.257Z,101525.84
2018-03-31T00:57:26.439Z,101526.81
2018-03-31T00:59:54.613Z,101529.32
2018-03-31T01:02:22.917Z,101533.97
2018-03-31T01:04:51.189Z,101535.58
2018-03-31T01:07:19.337Z,101538.98
2018-03-31T01:09:47.510Z,101536.91
2018-03-31T01:12:15.727Z,101529.13
2018-03-31T01:14:43.953Z,101517.09
2018-03-31T01:17:12.167Z,101516.30
2018-03-31T01:19:40.514Z,101513.97
2018-03-31T01:22:08.690Z,101515.13
2018-03-31T01:24:37.102Z,101513.05
2018-03-31T01:27:05.674Z,101515.09
2018-03-31T01:29:33.935Z,101516.33
2018-03-31T01:32:02.135Z,101519.17
2018-03-31T01:34:30.401Z,101522.78
2018-03-31T01:36:58.552Z,101523.78
2018-03-31T01:39:26.724Z,101533.39
2018-03-31T01:41:54.997Z,101527.92
2018-03-31T01:44:23.209Z,101515.55
2018-03-31T01:46:51.345Z,101507.85
2018-03-31T01:49:19.546Z,101510.80
2018-03-31T01:51:47.950Z,101501.71
2018-03-31T01:54:16.259Z,101503.88
2018-03-31T01:56:44.465Z,101504.22
2018-03-31T01:59:12.665Z,101506.38
2018-03-31T02:01:40.949Z,101505.23
2018-03-31T02:04:09.099Z,101498.16
2018-03-31T02:06:37.514Z,101494.06
2018-03-31T02:09:05.749Z,101496.83
2018-03-31T02:11:33.957Z,101498.05
2018-03-31T02:14:02.330Z,101491.36
2018-03-31T02:16:30.617Z,101489.00
2018-03-31T02:18:58.921Z,101482.48
2018-03-31T02:21:27.131Z,101487.34
2018-03-31T02:23:55.339Z,101485.22
2018-03-31T02:26:23.484Z,101492.09
2018-03-31T02:28:51.851Z,101485.84
2018-03-31T02:31:20.837Z,101481.98
2018-03-31T02:33:49.262Z,101471.13
2018-03-31T02:36:17.651Z,101476.12
2018-03-31T02:38:45.934Z,101474.80
2018-03-31T02:41:14.153Z,101483.44
2018-03-31T02:43:42.368Z,101485.04
2018-03-31T02:46:10.609Z,101480.05
2018-03-31T02:48:38.755Z,101480.05
2018-03-31T02:51:07.000Z,101472.55
2018-03-31T02:53:35.373Z,101471.48
2018-03-31T02:56:03.767Z,101478.97
2018-03-31T02:58:31.990Z,101476.09
2018-03-31T03:01:00.174Z,101470.23
2018-03-31T03:03:28.174Z,101474.43
2018-03-31T03:05:56.146Z,101475.05
2018-03-31T03:08:24.279Z,101465.06
2018-03-31T03:10:52.515Z,101462.02
2018-03-31T03:13:20.653Z,101459.48
2018-03-31T03:15:48.299Z,101465.97
2018-03-31T03:18:15.999Z,101471.97
2018-03-31T03:20:43.659Z,101472.84
2018-03-31T03:23:11.338Z,101479.98
2018-03-31T03:25:39.021Z,101465.09
2018-03-31T03:28:06.740Z,101468.47
2018-03-31T03:30:34.396Z,101471.86
2018-03-31T03:33:02.053Z,101474.88
2018-03-31T03:35:29.823Z,101466.73
2018-03-31T03:37:57.487Z,101463.88
2018-03-31T03:40:25.137Z,101465.52
2018-03-31T03:42:52.825Z,101464.82
2018-03-31T03:45:20.471Z,101465.06
2018-03-31T03:47:48.110Z,101473.17
2018-03-31T03:50:15.806Z,101472.21
2018-03-31T03:52:43.473Z,101479.08
2018-03-31T03:55:11.123Z,101485.83
2018-03-31T03:57:38.895Z,101486.39
2018-03-31T04:00:06.661Z,101490.02
2018-03-31T04:02:34.371Z,101498.58
2018-03-31T04:05:02.084Z,101503.11
2018-03-31T04:07:29.909Z,101497.22
2018-03-31T04:09:57.567Z,101502.10
2018-03-31T04:12:25.261Z,101498.18
2018-03-31T04:14:52.940Z,101502.72
2018-03-31T04:17:20.681Z,101509.76
2018-03-31T04:19:48.325Z,101502.45
2018-03-31T04:22:15.979Z,101505.06
2018-03-31T04:24:43.818Z,101496.16
2018-03-31T04:27:11.665Z,101492.63
2018-03-31T04:29:39.309Z,101486.50
2018-03-31T04:32:07.093Z,101486.09
2018-03-31T04:34:34.734Z,101489.31
2018-03-31T04:37:02.423Z,101489.17
2018-03-31T04:39:30.349Z,101490.59
2018-03-31T04:41:58.026Z,101495.68
2018-03-31T04:44:25.712Z,101492.27
2018-03-31T04:46:53.370Z,101495.06
2018-03-31T04:49:21.129Z,101498.61
2018-03-31T04:51:48.836Z,101500.84
2018-03-31T04:54:16.554Z,101498.95
2018-03-31T04:56:44.231Z,101494.84
2018-03-31T04:59:12.657Z,101493.89
2018-03-31T05:01:40.444Z,101494.03
2018-03-31T05:04:08.374Z,101487.48
2018-03-31T05:06:36.079Z,101479.09
2018-03-31T05:09:04.482Z,101484.67
2018-03-31T05:11:32.145Z,101483.12
2018-03-31T05:13:59.890Z,101486.38
2018-03-31T05:16:27.571Z,101478.56
2018-03-31T05:18:55.290Z,101483.30
2018-03-31T05:21:22.965Z,101483.19
2018-03-31T05:23:50.751Z,101488.14
2018-03-31T05:26:18.393Z,101484.58
2018-03-31T05:28:46.089Z,101482.80
2018-03-31T05:31:13.752Z,101504.27
2018-03-31T05:33:41.405Z,101473.58
2018-03-31T05:36:09.063Z,101472.30
2018-03-31T05:38:37.490Z,101473.94
2018-03-31T05:41:05.162Z,101469.49
2018-03-31T05:43:32.830Z,101456.50
2018-03-31T05:46:00.525Z,101449.61
2018-03-31T05:48:28.178Z,101455.34
2018-03-31T05:50:55.827Z,101439.27
2018-03-31T05:53:23.734Z,101452.95
2018-03-31T05:55:52.037Z,101454.70
2018-03-31T05:58:19.677Z,101445.25
2018-03-31T06:00:47.369Z,101471.64
2018-03-31T06:03:15.105Z,101459.73
2018-03-31T06:05:42.887Z,101499.52
2018-03-31T06:08:10.534Z,101455.38
2018-03-31T06:10:38.185Z,101464.59
2018-03-31T06:13:06.066Z,101462.48
2018-03-31T06:15:33.720Z,101497.86
2018-03-31T06:18:01.676Z,101448.49
2018-03-31T06:20:29.974Z,101441.77
2018-03-31T06:22:57.740Z,101445.30
2018-03-31T06:25:25.391Z,101461.20
2018-03-31T06:27:53.055Z,101449.12
2018-03-31T06:30:20.739Z,101463.39
2018-03-31T06:32:48.434Z,101448.86
2018-03-31T06:35:16.075Z,101457.30
2018-03-31T06:37:43.828Z,101474.88
2018-03-31T06:40:11.509Z,101480.22
2018-03-31T06:42:39.244Z,101476.38
2018-03-31T06:45:07.001Z,101479.58
2018-03-31T06:47:34.699Z,101482.59
2018-03-31T06:50:02.378Z,101447.55
2018-03-31T06:52:30.047Z,101492.33
2018-03-31T06:54:57.687Z,101489.02
2018-03-31T06:57:25.322Z,101500.83
2018-03-31T06:59:53.088Z,101472.73
2018-03-31T07:02:21.382Z,101484.27
2018-03-31T07:04:49.035Z,101492.39
2018-03-31T07:07:16.840Z,101480.71
2018-03-31T07:09:44.517Z,101495.80
2018-03-31T07:12:12.169Z,101463.56
2018-03-31T07:14:39.867Z,101489.98
2018-03-31T07:17:08.205Z,101461.59
2018-03-31T07:19:36.682Z,101476.40
2018-03-31T07:22:04.491Z,101461.93
2018-03-31T07:24:32.168Z,101478.56
2018-03-31T07:26:59.939Z,101473.01
2018-03-31T07:29:27.601Z,101463.98
2018-03-31T07:31:55.251Z,101466.06
2018-03-31T07:34:22.890Z,101463.78
2018-03-31T07:36:51.261Z,101451.42
2018-03-31T07:39:18.963Z,101452.86
2018-03-31T07:41:46.624Z,101465.44
2018-03-31T07:44:14.306Z,101480.06
2018-03-31T07:46:42.058Z,101478.11
2018-03-31T07:49:09.713Z,101479.94
2018-03-31T07:51:37.474Z,101456.82
2018-03-31T07:54:05.171Z,101460.83
2018-03-31T07:56:32.872Z,101448.35
2018-03-31T07:59:00.518Z,101451.67
2018-03-31T08:01:28.332Z,101450.58
2018-03-31T08:03:55.995Z,101436.64
2018-03-31T08:06:23.629Z,101443.50
2018-03-31T08:08:51.307Z,101415.52
2018-03-31T08:11:19.065Z,101420.29
2018-03-31T08:13:46.763Z,101428.59
2018-03-31T08:16:14.462Z,101431.25
2018-03-31T08:18:42.187Z,101428.16
2018-03-31T08:21:09.974Z,101429.06
2018-03-31T08:23:37.654Z,101431.42
2018-03-31T08:26:06.094Z,101432.30
2018-03-31T08:28:33.744Z,101436.30
2018-03-31T08:31:01.423Z,101435.81
2018-03-31T08:33:29.106Z,101431.33
2018-03-31T08:35:56.755Z,101430.76
2018-03-31T08:38:24.406Z,101431.43
2018-03-31T08:40:52.059Z,101418.80
2018-03-31T08:43:19.797Z,101409.21
2018-03-31T08:45:47.488Z,101420.31
2018-03-31T08:48:15.148Z,101413.91
2018-03-31T08:50:42.855Z,101411.96
2018-03-31T08:53:10.585Z,101409.38
2018-03-31T08:55:39.157Z,101405.48
2018-03-31T08:58:06.831Z,101406.97
2018-03-31T09:00:34.595Z,101400.64
2018-03-31T09:03:02.365Z,101391.05
2018-03-31T09:05:30.019Z,101399.25
2018-03-31T09:07:57.661Z,101394.41
2018-03-31T09:10:25.458Z,101379.25
2018-03-31T09:12:53.218Z,101375.71
2018-03-31T09:15:20.986Z,101379.50
2018-03-31T09:17:48.788Z,101375.52
2018-03-31T09:20:16.435Z,101364.71
2018-03-31T09:22:45.783Z,101370.83
2018-03-31T09:25:11.946Z,101358.16
2018-03-31T09:27:39.699Z,101355.30
2018-03-31T09:30:07.387Z,101359.11
2018-03-31T09:32:35.125Z,101359.86
2018-03-31T09:35:02.786Z,101350.19
2018-03-31T09:37:30.430Z,101344.33
2018-03-31T09:39:58.148Z,101336.14
2018-03-31T09:42:25.810Z,101325.67
2018-03-31T09:44:53.552Z,101314.70
2018-03-31T09:47:21.204Z,101315.96
2018-03-31T09:49:48.868Z,101306.05
2018-03-31T09:52:16.642Z,101311.87
2018-03-31T09:54:44.350Z,101311.73
2018-03-31T09:57:12.019Z,101304.52
2018-03-31T09:59:39.730Z,101290.23
2018-03-31T10:02:07.417Z,101290.11
2018-03-31T10:04:35.159Z,101289.89
2018-03-31T10:07:02.931Z,101281.16
2018-03-31T10:09:30.626Z,101269.95
2018-03-31T10:11:58.310Z,101274.84
2018-03-31T10:14:25.953Z,101269.45
2018-03-31T10:16:54.296Z,101268.03
2018-03-31T10:19:21.953Z,101269.03
2018-03-31T10:21:49.867Z,101274.03
2018-03-31T10:24:17.586Z,101282.27
2018-03-31T10:26:45.550Z,101280.55
2018-03-31T10:29:13.203Z,101280.66
2018-03-31T10:31:40.984Z,101280.27
2018-03-31T10:34:08.730Z,101293.47
2018-03-31T10:36:36.415Z,101280.97
2018-03-31T10:39:04.107Z,101268.30
2018-03-31T10:41:31.754Z,101252.27
2018-03-31T10:43:59.506Z,101248.06
2018-03-31T10:46:27.185Z,101249.83
2018-03-31T10:48:54.934Z,101256.46
2018-03-31T10:51:22.578Z,101247.83
2018-03-31T10:53:50.285Z,101222.16
2018-03-31T10:56:17.973Z,101211.77
2018-03-31T10:58:45.627Z,101209.73
2018-03-31T11:01:13.313Z,101207.38
2018-03-31T11:03:40.955Z,101190.41
2018-03-31T11:06:08.625Z,101193.27
2018-03-31T11:08:36.277Z,101194.92
2018-03-31T11:11:03.927Z,101196.34
2018-03-31T11:13:31.689Z,101193.41
2018-03-31T11:15:59.335Z,101196.69
2018-03-31T11:18:26.979Z,101200.62
2018-03-31T11:20:54.657Z,101192.13
2018-03-31T11:23:22.923Z,101176.56
2018-03-31T11:25:50.803Z,101178.72
2018-03-31T11:28:18.441Z,101167.02
2018-03-31T11:30:46.094Z,101163.78
2018-03-31T11:33:13.743Z,101162.64
2018-03-31T11:35:41.448Z,101163.19
2018-03-31T11:38:09.125Z,101154.30
2018-03-31T11:40:36.880Z,101148.28
2018-03-31T11:43:04.533Z,101155.19
2018-03-31T11:45:32.246Z,101150.05
2018-03-31T11:47:59.915Z,101151.26
2018-03-31T11:50:27.567Z,101144.64
2018-03-31T11:52:55.267Z,101152.72
2018-03-31T11:55:23.181Z,101144.25
2018-03-31T11:57:51.385Z,101134.47
2018-03-31T12:00:19.129Z,101137.94
2018-03-31T12:02:46.789Z,101122.36
2018-03-31T12:05:14.433Z,101123.22
2018-03-31T12:07:42.190Z,101120.05
2018-03-31T12:10:09.867Z,101117.11
2018-03-31T12:12:37.567Z,101121.94
2018-03-31T12:15:05.260Z,101116.73
2018-03-31T12:17:32.924Z,101118.41
2018-03-31T12:20:00.761Z,101098.41
2018-03-31T12:22:28.422Z,101106.95
2018-03-31T12:24:56.072Z,101093.85
2018-03-31T12:27:23.809Z,101091.98
2018-03-31T12:29:51.685Z,101091.14
2018-03-31T12:32:19.409Z,101073.74
2018-03-31T12:34:47.092Z,101072.15
2018-03-31T12:37:14.735Z,101079.20
2018-03-31T12:39:42.422Z,101061.58
2018-03-31T12:42:10.094Z,101062.92
2018-03-31T12:44:37.749Z,101066.75
2018-03-31T12:47:05.381Z,101053.28
2018-03-31T12:49:33.017Z,101040.18
2018-03-31T12:52:00.731Z,101025.39
2018-03-31T12:54:28.461Z,101032.23
2018-03-31T12:56:56.110Z,101032.02
2018-03-31T12:59:23.801Z,101028.40
2018-03-31T13:01:51.437Z,101021.72
2018-03-31T13:04:19.158Z,101016.97
2018-03-31T13:06:46.837Z,100995.97
2018-03-31T13:09:14.482Z,100995.01
2018-03-31T13:11:42.226Z,100986.07
2018-03-31T13:14:09.992Z,100983.72
2018-03-31T13:16:37.677Z,100981.95
2018-03-31T13:19:05.427Z,100967.35
2018-03-31T13:21:33.123Z,100975.95
2018-03-31T13:24:01.036Z,100981.91
2018-03-31T13:26:28.698Z,100971.31
2018-03-31T13:28:56.381Z,100964.27
2018-03-31T13:31:24.046Z,100962.86
2018-03-31T13:33:51.691Z,100963.81
2018-03-31T13:36:19.466Z,100958.82
2018-03-31T13:38:47.181Z,100951.66
2018-03-31T13:41:14.826Z,100975.20
2018-03-31T13:43:42.477Z,100968.24
2018-03-31T13:46:10.175Z,100963.32
2018-03-31T13:48:37.842Z,100961.89
2018-03-31T13:51:05.473Z,100963.44
2018-03-31T13:53:33.311Z,100951.16
2018-03-31T13:56:00.957Z,100952.50
2018-03-31T13:58:28.738Z,100943.05
2018-03-31T14:00:56.454Z,100941.69
2018-03-31T14:03:24.175Z,100941.69
2018-03-31T14:05:51.918Z,100938.99
2018-03-31T14:08:19.698Z,100933.88
2018-03-31T14:10:47.350Z,100946.44
2018-03-31T14:13:15.041Z,100945.31
2018-03-31T14:15:42.794Z,100942.05
2018-03-31T14:18:10.433Z,100930.27
2018-03-31T14:20:38.307Z,100929.98
2018-03-31T14:23:05.982Z,100929.02
2018-03-31T14:25:33.745Z,100927.66
2018-03-31T14:28:01.381Z,100914.67
2018-03-31T14:30:29.082Z,100909.38
2018-03-31T14:32:56.740Z,100908.13
2018-03-31T14:35:24.413Z,100898.69
2018-03-31T14:37:52.141Z,100896.46
2018-03-31T14:40:19.814Z,100904.20
2018-03-31T14:42:47.492Z,100898.95
2018-03-31T14:45:15.345Z,100903.40
2018-03-31T14:47:43.030Z,100908.61
2018-03-31T14:50:10.680Z,100914.81
2018-03-31T14:52:38.364Z,100910.59
2018-03-31T14:55:06.011Z,100907.86
2018-03-31T14:57:33.778Z,100909.94
2018-03-31T15:00:01.449Z,100909.42
2018-03-31T15:02:29.104Z,100901.21
2018-03-31T15:04:56.976Z,100888.74
2018-03-31T15:07:24.654Z,100887.56
2018-03-31T15:09:53.793Z,100885.41
2018-03-31T15:12:21.485Z,100879.39
2018-03-31T15:14:49.159Z,100865.29
2018-03-31T15:17:16.822Z,100865.59
2018-03-31T15:19:44.591Z,100855.43
2018-03-31T15:22:12.458Z,100845.85
2018-03-31T15:24:40.267Z,100847.26
2018-03-31T15:27:07.913Z,100841.69
2018-03-31T15:29:35.698Z,100847.84
2018-03-31T15:32:03.387Z,100842.15
2018-03-31T15:34:31.035Z,100850.39
2018-03-31T15:36:59.730Z,100854.81
2018-03-31T15:39:27.443Z,100854.13
2018-03-31T15:41:55.176Z,100850.52
2018-03-31T15:44:22.818Z,100855.41
2018-03-31T15:46:50.604Z,100845.27
2018-03-31T15:49:18.233Z,100847.70
2018-03-31T15:51:45.918Z,100860.69
2018-03-31T15:54:13.699Z,100854.58
2018-03-31T15:56:41.334Z,100869.97
2018-03-31T15:59:09.026Z,100877.17
2018-03-31T16:01:37.304Z,100875.16
2018-03-31T16:04:04.947Z,100882.58
2018-03-31T16:06:32.659Z,100874.64
2018-03-31T16:09:00.322Z,100876.23
2018-03-31T16:11:27.964Z,100889.34
2018-03-31T16:13:56.579Z,100878.94
2018-03-31T16:16:24.228Z,100887.20
2018-03-31T16:18:51.860Z,100878.91
2018-03-31T16:21:19.538Z,100879.37
2018-03-31T16:23:47.189Z,100877.02
2018-03-31T16:26:14.956Z,100889.42
2018-03-31T16:28:42.599Z,100890.67
2018-03-31T16:31:10.229Z,100900.38
2018-03-31T16:33:37.942Z,100903.23
2018-03-31T16:36:05.606Z,100906.77
2018-03-31T16:38:33.317Z,100901.93
2018-03-31T16:41:01.032Z,100904.47
2018-03-31T16:43:28.694Z,100899.33
2018-03-31T16:45:56.383Z,100901.94
2018-03-31T16:48:24.126Z,100890.97
2018-03-31T16:50:51.801Z,100889.29
2018-03-31T16:53:19.477Z,100894.70
2018-03-31T16:55:47.118Z,100887.84
2018-03-31T16:58:14.773Z,100885.27
2018-03-31T17:00:42.459Z,100887.92
2018-03-31T17:03:10.149Z,100892.78
2018-03-31T17:05:37.814Z,100892.34
2018-03-31T17:08:05.630Z,100896.73
2018-03-31T17:10:33.287Z,100896.25
2018-03-31T17:13:01.473Z,100889.02
2018-03-31T17:15:29.167Z,100891.73
2018-03-31T17:17:56.897Z,100886.62
2018-03-31T17:20:24.624Z,100885.08
2018-03-31T17:22:52.336Z,100891.63
2018-03-31T17:25:19.986Z,100882.95
2018-03-31T17:27:47.657Z,100887.27
2018-03-31T17:30:15.317Z,100895.48
2018-03-31T17:32:42.985Z,100885.21
2018-03-31T17:35:10.630Z,100874.89
2018-03-31T17:37:38.277Z,100884.14
2018-03-31T17:40:06.010Z,100883.77
2018-03-31T17:42:33.701Z,100884.06
2018-03-31T17:45:01.391Z,100884.53
2018-03-31T17:47:29.029Z,100881.96
2018-03-31T17:49:56.692Z,100883.96
2018-03-31T17:52:24.475Z,100883.22
2018-03-31T17:54:52.185Z,100878.94
2018-03-31T17:57:19.835Z,100893.96
2018-03-31T17:59:47.491Z,100888.80
2018-03-31T18:02:15.220Z,100884.63
2018-03-31T18:04:42.877Z,100886.62
2018-03-31T18:07:10.556Z,100886.75
2018-03-31T18:09:38.327Z,100878.47
2018-03-31T18:12:05.965Z,100874.84
2018-03-31T18:14:33.631Z,100878.88
2018-03-31T18:17:01.305Z,100874.35
2018-03-31T18:19:28.952Z,100873.05
2018-03-31T18:21:56.661Z,100874.74
2018-03-31T18:24:24.401Z,100875.92
2018-03-31T18:26:52.150Z,100871.31
2018-03-31T18:29:19.851Z,100877.42
2018-03-31T18:31:47.490Z,100862.58
2018-03-31T18:34:15.125Z,100858.84
2018-03-31T18:36:42.813Z,100856.67
2018-03-31T18:39:10.493Z,100856.65
2018-03-31T18:41:38.186Z,100851.63
2018-03-31T18:44:06.012Z,100847.86
2018-03-31T18:46:33.649Z,100843.50
2018-03-31T18:49:01.294Z,100839.12
2018-03-31T18:51:29.060Z,100858.41
2018-03-31T18:53:56.765Z,100854.52
2018-03-31T18:56:24.423Z,100857.08
2018-03-31T18:58:52.487Z,100853.75
2018-03-31T19:01:20.161Z,100845.75
2018-03-31T19:03:47.806Z,100852.06
2018-03-31T19:06:15.498Z,100847.90
2018-03-31T19:08:43.142Z,100848.70
2018-03-31T19:11:10.919Z,100849.94
2018-03-31T19:13:38.600Z,100847.95
2018-03-31T19:16:06.277Z,100845.55
2018-03-31T19:18:33.931Z,100843.03
2018-03-31T19:21:01.611Z,100854.16
2018-03-31T19:23:29.249Z,100848.69
2018-03-31T19:25:56.890Z,100852.93
2018-03-31T19:28:24.565Z,100843.56
2018-03-31T19:30:52.217Z,100848.14
2018-03-31T19:33:19.857Z,100840.66
2018-03-31T19:35:53.093Z,100841.52
2018-03-31T19:38:21.577Z,100838.97
2018-03-31T19:40:49.287Z,100829.95
2018-03-31T19:43:16.954Z,100826.42
2018-03-31T19:45:44.589Z,100814.00
2018-03-31T19:48:12.229Z,100805.94
2018-03-31T19:50:39.872Z,100812.74
2018-03-31T19:53:07.585Z,100804.23
2018-03-31T19:55:35.300Z,100816.86
2018-03-31T19:58:02.955Z,100813.58
2018-03-31T20:00:30.621Z,100806.66
2018-03-31T20:02:58.305Z,100812.70
2018-03-31T20:05:25.995Z,100800.84
2018-03-31T20:07:54.349Z,100800.56
2018-03-31T20:10:22.049Z,100784.92
2018-03-31T20:12:49.730Z,100793.63
2018-03-31T20:15:17.385Z,100785.00
2018-03-31T20:17:45.126Z,100787.05
2018-03-31T20:20:12.838Z,100786.02
2018-03-31T20:22:40.507Z,100777.16
2018-03-31T20:25:08.267Z,100782.26
2018-03-31T20:27:35.907Z,100772.19
2018-03-31T20:30:03.553Z,100777.88
2018-03-31T20:32:31.230Z,100773.41
2018-03-31T20:34:58.930Z,100768.63
2018-03-31T20:37:26.573Z,100761.08
2018-03-31T20:39:54.480Z,100750.37
2018-03-31T20:42:22.146Z,100754.35
2018-03-31T20:44:49.978Z,100742.27
2018-03-31T20:47:17.638Z,100744.43
2018-03-31T20:49:45.267Z,100736.41
2018-03-31T20:52:13.521Z,100740.00
2018-03-31T20:54:41.250Z,100737.29
2018-03-31T20:57:08.896Z,100735.13
2018-03-31T20:59:36.592Z,100734.34
2018-03-31T21:02:04.344Z,100722.27
2018-03-31T21:04:31.981Z,100710.66
2018-03-31T21:06:59.621Z,100707.14
2018-03-31T21:09:27.267Z,100711.42
2018-03-31T21:11:54.983Z,100703.75
2018-03-31T21:14:22.685Z,100709.09
2018-03-31T21:16:50.326Z,100704.03
2018-03-31T21:19:18.085Z,100700.72
2018-03-31T21:21:45.766Z,100701.09
2018-03-31T21:24:13.404Z,100690.76
2018-03-31T21:26:41.052Z,100693.49
2018-03-31T21:29:08.736Z,100687.91
2018-03-31T21:31:36.502Z,100677.30
2018-03-31T21:34:04.784Z,100674.73
2018-03-31T21:36:32.417Z,100668.61
2018-03-31T21:39:00.066Z,100661.69
2018-03-31T21:41:27.768Z,100655.72
2018-03-31T21:43:55.397Z,100651.55
2018-03-31T21:46:23.039Z,100645.70
2018-03-31T21:48:50.707Z,100640.28
2018-03-31T21:51:18.505Z,100643.29
2018-03-31T21:53:46.185Z,100639.47
2018-03-31T21:56:13.858Z,100632.00
2018-03-31T21:58:41.494Z,100630.66
2018-03-31T22:01:09.230Z,100631.59
2018-03-31T22:03:36.893Z,100630.31
2018-03-31T22:06:04.553Z,100627.40
2018-03-31T22:08:32.339Z,100623.73
2018-03-31T22:10:59.977Z,100619.14
2018-03-31T22:16:32.166Z,100605.42
2018-03-31T22:18:59.845Z,100613.16
2018-03-31T22:21:27.640Z,100606.00
2018-03-31T22:23:55.274Z,100611.88
2018-03-31T22:26:22.941Z,100622.78
2018-03-31T22:28:50.631Z,100624.85
2018-03-31T22:31:18.323Z,100614.91
2018-03-31T22:33:46.054Z,100603.75
2018-03-31T22:36:13.695Z,100591.23
2018-03-31T22:38:41.373Z,100594.80
2018-03-31T22:41:09.073Z,100592.50
2018-03-31T22:43:36.754Z,100598.07
2018-03-31T22:46:04.426Z,100588.08
2018-03-31T22:48:32.073Z,100583.29
2018-03-31T22:50:59.734Z,100588.55
2018-03-31T22:53:27.433Z,100584.58
2018-03-31T22:55:55.097Z,100578.53
2018-03-31T22:58:22.759Z,100571.66
2018-03-31T23:00:50.435Z,100562.53
2018-03-31T23:03:18.682Z,100560.91
2018-03-31T23:05:46.989Z,100556.09
2018-03-31T23:08:15.097Z,100553.66
2018-03-31T23:10:43.412Z,100557.52
2018-03-31T23:13:11.717Z,100553.17
2018-03-31T23:15:39.993Z,100552.42
2018-03-31T23:18:08.950Z,100551.31
2018-03-31T23:20:37.134Z,100541.64
2018-03-31T23:23:05.338Z,100532.74
2018-03-31T23:25:33.458Z,100507.52
2018-03-31T23:28:01.745Z,100521.51
2018-03-31T23:30:29.993Z,100525.40
2018-03-31T23:32:58.209Z,100513.78
2018-03-31T23:35:26.430Z,100507.70
2018-03-31T23:37:54.577Z,100519.66
2018-03-31T23:40:22.357Z,100490.63
2018-03-31T23:42:50.066Z,100508.59
2018-03-31T23:45:17.785Z,100499.92
2018-03-31T23:47:45.491Z,100497.44
2018-03-31T23:50:13.221Z,100519.97
2018-03-31T23:52:40.897Z,100495.19
2018-03-31T23:55:08.610Z,100504.36
2018-03-31T23:57:36.261Z,100475.89
